sensor_id;sensor_type;location;lat;lon;timestamp;P1;durP1;ratioP1;P2;durP2;ratioP2
80281;SDS011;69586;51.890;-8.458;2024-03-17T00:01:04;24.50;;;13.52;;
80281;SDS011;69586;51.890;-8.458;2024-03-17T00:03:30;19.40;;;12.27;;
80281;SDS011;69586;51.890;-8.458;2024-03-17T00:05:56;24.58;;;13.13;;
80281;SDS011;69586;51.890;-8.458;2024-03-17T00:08:23;19.08;;;11.85;;
80281;SDS011;69586;51.890;-8.458;2024-03-17T00:10:50;23.88;;;13.00;;
80281;SDS011;69586;51.890;-8.458;2024-03-17T00:13:16;23.67;;;12.13;;
80281;SDS011;69586;51.890;-8.458;2024-03-17T00:15:42;24.25;;;12.63;;
80281;SDS011;69586;51.890;-8.458;2024-03-17T00:18:08;22.98;;;11.98;;
80281;SDS011;69586;51.890;-8.458;2024-03-17T00:20:37;19.58;;;12.05;;
80281;SDS011;69586;51.890;-8.458;2024-03-17T00:23:06;25.20;;;12.63;;
80281;SDS011;69586;51.890;-8.458;2024-03-17T00:25:33;28.58;;;14.63;;
80281;SDS011;69586;51.890;-8.458;2024-03-17T00:27:59;25.92;;;14.10;;
80281;SDS011;69586;51.890;-8.458;2024-03-17T00:30:26;26.13;;;14.15;;
80281;SDS011;69586;51.890;-8.458;2024-03-17T00:32:51;22.80;;;13.35;;
80281;SDS011;69586;51.890;-8.458;2024-03-17T00:35:17;27.73;;;14.40;;
80281;SDS011;69586;51.890;-8.458;2024-03-17T00:37:47;23.15;;;14.02;;
80281;SDS011;69586;51.890;-8.458;2024-03-17T00:40:13;23.35;;;14.80;;
80281;SDS011;69586;51.890;-8.458;2024-03-17T00:42:39;19.65;;;17.27;;
80281;SDS011;69586;51.890;-8.458;2024-03-17T00:45:06;21.70;;;18.52;;
80281;SDS011;69586;51.890;-8.458;2024-03-17T00:47:32;25.77;;;20.75;;
80281;SDS011;69586;51.890;-8.458;2024-03-17T00:49:58;21.08;;;19.08;;
80281;SDS011;69586;51.890;-8.458;2024-03-17T00:52:24;23.08;;;20.75;;
80281;SDS011;69586;51.890;-8.458;2024-03-17T00:54:49;27.45;;;21.70;;
80281;SDS011;69586;51.890;-8.458;2024-03-17T00:57:15;23.27;;;21.15;;
80281;SDS011;69586;51.890;-8.458;2024-03-17T00:59:41;28.20;;;25.35;;
80281;SDS011;69586;51.890;-8.458;2024-03-17T01:02:11;28.13;;;25.83;;
80281;SDS011;69586;51.890;-8.458;2024-03-17T01:04:38;32.15;;;29.25;;
80281;SDS011;69586;51.890;-8.458;2024-03-17T01:07:04;33.50;;;30.95;;
80281;SDS011;69586;51.890;-8.458;2024-03-17T01:09:31;34.90;;;32.13;;
80281;SDS011;69586;51.890;-8.458;2024-03-17T01:11:56;36.55;;;33.78;;
80281;SDS011;69586;51.890;-8.458;2024-03-17T01:14:22;36.97;;;34.22;;
80281;SDS011;69586;51.890;-8.458;2024-03-17T01:16:50;41.42;;;38.33;;
80281;SDS011;69586;51.890;-8.458;2024-03-17T01:19:16;47.70;;;44.30;;
80281;SDS011;69586;51.890;-8.458;2024-03-17T01:21:42;51.22;;;47.85;;
80281;SDS011;69586;51.890;-8.458;2024-03-17T01:24:08;46.95;;;43.88;;
80281;SDS011;69586;51.890;-8.458;2024-03-17T01:26:33;46.90;;;43.58;;
80281;SDS011;69586;51.890;-8.458;2024-03-17T01:29:00;43.55;;;40.42;;
80281;SDS011;69586;51.890;-8.458;2024-03-17T01:31:26;39.90;;;36.97;;
80281;SDS011;69586;51.890;-8.458;2024-03-17T01:33:52;39.10;;;36.13;;
80281;SDS011;69586;51.890;-8.458;2024-03-17T01:36:18;39.47;;;36.42;;
80281;SDS011;69586;51.890;-8.458;2024-03-17T01:38:44;37.03;;;34.38;;
80281;SDS011;69586;51.890;-8.458;2024-03-17T01:41:09;37.10;;;33.92;;
80281;SDS011;69586;51.890;-8.458;2024-03-17T01:43:35;42.83;;;39.83;;
80281;SDS011;69586;51.890;-8.458;2024-03-17T01:46:01;38.58;;;35.42;;
80281;SDS011;69586;51.890;-8.458;2024-03-17T01:48:28;34.70;;;32.22;;
80281;SDS011;69586;51.890;-8.458;2024-03-17T01:50:55;35.75;;;32.88;;
80281;SDS011;69586;51.890;-8.458;2024-03-17T01:53:21;38.72;;;35.97;;
80281;SDS011;69586;51.890;-8.458;2024-03-17T01:55:52;38.45;;;35.53;;
80281;SDS011;69586;51.890;-8.458;2024-03-17T01:58:23;37.17;;;34.85;;
80281;SDS011;69586;51.890;-8.458;2024-03-17T02:00:50;32.90;;;30.67;;
80281;SDS011;69586;51.890;-8.458;2024-03-17T02:03:17;32.97;;;30.85;;
80281;SDS011;69586;51.890;-8.458;2024-03-17T02:05:43;32.13;;;30.08;;
80281;SDS011;69586;51.890;-8.458;2024-03-17T02:08:10;30.20;;;27.77;;
80281;SDS011;69586;51.890;-8.458;2024-03-17T02:10:36;29.42;;;27.33;;
80281;SDS011;69586;51.890;-8.458;2024-03-17T02:13:02;29.65;;;27.52;;
80281;SDS011;69586;51.890;-8.458;2024-03-17T02:15:32;30.10;;;28.23;;
80281;SDS011;69586;51.890;-8.458;2024-03-17T02:17:58;29.38;;;27.23;;
80281;SDS011;69586;51.890;-8.458;2024-03-17T02:20:24;30.63;;;28.48;;
80281;SDS011;69586;51.890;-8.458;2024-03-17T02:23:10;31.42;;;29.48;;
80281;SDS011;69586;51.890;-8.458;2024-03-17T02:25:36;32.15;;;29.92;;
80281;SDS011;69586;51.890;-8.458;2024-03-17T02:28:02;32.47;;;30.30;;
80281;SDS011;69586;51.890;-8.458;2024-03-17T02:30:29;31.27;;;29.13;;
80281;SDS011;69586;51.890;-8.458;2024-03-17T02:32:55;37.67;;;34.88;;
80281;SDS011;69586;51.890;-8.458;2024-03-17T02:35:21;35.30;;;32.88;;
80281;SDS011;69586;51.890;-8.458;2024-03-17T02:37:48;32.08;;;30.05;;
80281;SDS011;69586;51.890;-8.458;2024-03-17T02:40:14;31.30;;;29.33;;
80281;SDS011;69586;51.890;-8.458;2024-03-17T02:42:41;34.75;;;32.47;;
80281;SDS011;69586;51.890;-8.458;2024-03-17T02:45:08;35.53;;;33.13;;
80281;SDS011;69586;51.890;-8.458;2024-03-17T02:47:34;34.80;;;32.83;;
80281;SDS011;69586;51.890;-8.458;2024-03-17T02:50:00;31.67;;;29.75;;
80281;SDS011;69586;51.890;-8.458;2024-03-17T02:52:26;31.10;;;28.83;;
80281;SDS011;69586;51.890;-8.458;2024-03-17T02:54:52;32.20;;;30.10;;
80281;SDS011;69586;51.890;-8.458;2024-03-17T02:57:22;30.75;;;28.67;;
80281;SDS011;69586;51.890;-8.458;2024-03-17T02:59:50;33.03;;;30.92;;
80281;SDS011;69586;51.890;-8.458;2024-03-17T03:02:16;34.88;;;32.35;;
80281;SDS011;69586;51.890;-8.458;2024-03-17T03:04:42;32.80;;;30.70;;
80281;SDS011;69586;51.890;-8.458;2024-03-17T03:07:08;35.50;;;32.90;;
80281;SDS011;69586;51.890;-8.458;2024-03-17T03:09:34;41.03;;;37.80;;
80281;SDS011;69586;51.890;-8.458;2024-03-17T03:12:00;43.72;;;40.47;;
80281;SDS011;69586;51.890;-8.458;2024-03-17T03:14:29;42.70;;;39.45;;
80281;SDS011;69586;51.890;-8.458;2024-03-17T03:16:55;45.38;;;42.08;;
80281;SDS011;69586;51.890;-8.458;2024-03-17T03:19:21;44.55;;;41.17;;
80281;SDS011;69586;51.890;-8.458;2024-03-17T03:21:46;40.80;;;37.00;;
80281;SDS011;69586;51.890;-8.458;2024-03-17T03:24:16;39.38;;;35.85;;
80281;SDS011;69586;51.890;-8.458;2024-03-17T03:26:42;38.95;;;35.67;;
80281;SDS011;69586;51.890;-8.458;2024-03-17T03:29:08;42.63;;;37.45;;
80281;SDS011;69586;51.890;-8.458;2024-03-17T03:31:35;36.95;;;33.63;;
80281;SDS011;69586;51.890;-8.458;2024-03-17T03:34:04;37.67;;;34.00;;
80281;SDS011;69586;51.890;-8.458;2024-03-17T03:36:32;36.40;;;32.72;;
80281;SDS011;69586;51.890;-8.458;2024-03-17T03:38:59;35.42;;;30.85;;
80281;SDS011;69586;51.890;-8.458;2024-03-17T03:41:25;36.63;;;28.08;;
80281;SDS011;69586;51.890;-8.458;2024-03-17T03:43:51;33.83;;;27.83;;
80281;SDS011;69586;51.890;-8.458;2024-03-17T03:46:17;34.00;;;28.42;;
80281;SDS011;69586;51.890;-8.458;2024-03-17T03:48:43;34.72;;;28.77;;
80281;SDS011;69586;51.890;-8.458;2024-03-17T03:51:09;32.15;;;28.95;;
80281;SDS011;69586;51.890;-8.458;2024-03-17T03:53:35;27.35;;;24.48;;
80281;SDS011;69586;51.890;-8.458;2024-03-17T03:56:03;30.52;;;24.70;;
80281;SDS011;69586;51.890;-8.458;2024-03-17T03:58:32;32.42;;;25.77;;
80281;SDS011;69586;51.890;-8.458;2024-03-17T04:01:05;31.17;;;24.60;;
80281;SDS011;69586;51.890;-8.458;2024-03-17T04:03:31;29.83;;;23.88;;
80281;SDS011;69586;51.890;-8.458;2024-03-17T04:06:04;30.13;;;21.55;;
80281;SDS011;69586;51.890;-8.458;2024-03-17T04:08:35;32.28;;;24.50;;
80281;SDS011;69586;51.890;-8.458;2024-03-17T04:11:02;29.67;;;24.63;;
80281;SDS011;69586;51.890;-8.458;2024-03-17T04:13:29;29.75;;;22.73;;
80281;SDS011;69586;51.890;-8.458;2024-03-17T04:15:55;35.28;;;19.13;;
80281;SDS011;69586;51.890;-8.458;2024-03-17T04:18:25;32.30;;;20.58;;
80281;SDS011;69586;51.890;-8.458;2024-03-17T04:20:55;28.70;;;21.70;;
80281;SDS011;69586;51.890;-8.458;2024-03-17T04:23:21;28.40;;;20.27;;
80281;SDS011;69586;51.890;-8.458;2024-03-17T04:25:48;27.10;;;21.98;;
80281;SDS011;69586;51.890;-8.458;2024-03-17T04:28:15;30.63;;;24.33;;
80281;SDS011;69586;51.890;-8.458;2024-03-17T04:30:41;32.55;;;25.90;;
80281;SDS011;69586;51.890;-8.458;2024-03-17T04:33:08;30.00;;;27.08;;
80281;SDS011;69586;51.890;-8.458;2024-03-17T04:35:37;27.52;;;24.70;;
80281;SDS011;69586;51.890;-8.458;2024-03-17T04:38:04;29.60;;;26.70;;
80281;SDS011;69586;51.890;-8.458;2024-03-17T04:40:31;28.63;;;26.02;;
80281;SDS011;69586;51.890;-8.458;2024-03-17T04:43:00;30.27;;;26.98;;
80281;SDS011;69586;51.890;-8.458;2024-03-17T04:45:26;30.30;;;27.17;;
80281;SDS011;69586;51.890;-8.458;2024-03-17T04:47:52;26.02;;;23.35;;
80281;SDS011;69586;51.890;-8.458;2024-03-17T04:50:18;25.08;;;22.00;;
80281;SDS011;69586;51.890;-8.458;2024-03-17T04:52:44;28.05;;;25.15;;
80281;SDS011;69586;51.890;-8.458;2024-03-17T04:55:09;25.48;;;21.98;;
80281;SDS011;69586;51.890;-8.458;2024-03-17T04:57:35;25.45;;;19.10;;
80281;SDS011;69586;51.890;-8.458;2024-03-17T05:00:02;23.77;;;17.48;;
80281;SDS011;69586;51.890;-8.458;2024-03-17T05:02:32;24.23;;;17.45;;
80281;SDS011;69586;51.890;-8.458;2024-03-17T05:04:58;25.25;;;17.88;;
80281;SDS011;69586;51.890;-8.458;2024-03-17T05:07:24;26.90;;;16.27;;
80281;SDS011;69586;51.890;-8.458;2024-03-17T05:09:50;19.92;;;13.25;;
80281;SDS011;69586;51.890;-8.458;2024-03-17T05:12:16;21.48;;;13.07;;
80281;SDS011;69586;51.890;-8.458;2024-03-17T05:14:42;24.73;;;13.77;;
80281;SDS011;69586;51.890;-8.458;2024-03-17T05:17:07;15.95;;;14.02;;
80281;SDS011;69586;51.890;-8.458;2024-03-17T05:19:33;22.35;;;14.38;;
80281;SDS011;69586;51.890;-8.458;2024-03-17T05:21:59;21.92;;;14.98;;
80281;SDS011;69586;51.890;-8.458;2024-03-17T05:24:25;26.02;;;13.25;;
80281;SDS011;69586;51.890;-8.458;2024-03-17T05:26:51;18.95;;;13.27;;
80281;SDS011;69586;51.890;-8.458;2024-03-17T05:29:17;22.67;;;13.93;;
80281;SDS011;69586;51.890;-8.458;2024-03-17T05:31:42;21.80;;;13.40;;
80281;SDS011;69586;51.890;-8.458;2024-03-17T05:34:08;21.08;;;13.15;;
80281;SDS011;69586;51.890;-8.458;2024-03-17T05:36:35;25.55;;;14.38;;
80281;SDS011;69586;51.890;-8.458;2024-03-17T05:39:01;19.90;;;11.80;;
80281;SDS011;69586;51.890;-8.458;2024-03-17T05:41:28;21.45;;;12.82;;
80281;SDS011;69586;51.890;-8.458;2024-03-17T05:43:53;22.98;;;13.38;;
80281;SDS011;69586;51.890;-8.458;2024-03-17T05:46:23;21.98;;;11.02;;
80281;SDS011;69586;51.890;-8.458;2024-03-17T05:48:50;18.15;;;11.27;;
80281;SDS011;69586;51.890;-8.458;2024-03-17T05:51:16;26.55;;;11.88;;
80281;SDS011;69586;51.890;-8.458;2024-03-17T05:53:42;21.73;;;11.23;;
80281;SDS011;69586;51.890;-8.458;2024-03-17T05:56:09;26.55;;;9.73;;
80281;SDS011;69586;51.890;-8.458;2024-03-17T05:58:38;20.88;;;9.30;;
80281;SDS011;69586;51.890;-8.458;2024-03-17T06:01:04;19.70;;;8.77;;
80281;SDS011;69586;51.890;-8.458;2024-03-17T06:03:32;21.77;;;8.25;;
80281;SDS011;69586;51.890;-8.458;2024-03-17T06:06:01;17.83;;;7.65;;
80281;SDS011;69586;51.890;-8.458;2024-03-17T06:08:28;15.00;;;6.88;;
80281;SDS011;69586;51.890;-8.458;2024-03-17T06:10:55;21.05;;;6.45;;
80281;SDS011;69586;51.890;-8.458;2024-03-17T06:13:25;19.40;;;6.38;;
80281;SDS011;69586;51.890;-8.458;2024-03-17T06:15:53;19.95;;;6.38;;
80281;SDS011;69586;51.890;-8.458;2024-03-17T06:18:18;13.55;;;5.38;;
80281;SDS011;69586;51.890;-8.458;2024-03-17T06:20:45;16.65;;;5.90;;
80281;SDS011;69586;51.890;-8.458;2024-03-17T06:23:12;16.67;;;5.97;;
80281;SDS011;69586;51.890;-8.458;2024-03-17T06:28:12;11.73;;;5.20;;
80281;SDS011;69586;51.890;-8.458;2024-03-17T06:30:40;11.43;;;4.90;;
80281;SDS011;69586;51.890;-8.458;2024-03-17T06:33:06;14.88;;;4.80;;
80281;SDS011;69586;51.890;-8.458;2024-03-17T06:35:33;16.67;;;4.63;;
80281;SDS011;69586;51.890;-8.458;2024-03-17T06:38:01;10.30;;;4.03;;
80281;SDS011;69586;51.890;-8.458;2024-03-17T06:40:27;18.02;;;4.72;;
80281;SDS011;69586;51.890;-8.458;2024-03-17T06:42:53;12.13;;;5.05;;
80281;SDS011;69586;51.890;-8.458;2024-03-17T06:45:19;10.38;;;4.72;;
80281;SDS011;69586;51.890;-8.458;2024-03-17T06:47:46;14.43;;;3.95;;
80281;SDS011;69586;51.890;-8.458;2024-03-17T06:50:12;13.63;;;4.85;;
80281;SDS011;69586;51.890;-8.458;2024-03-17T06:52:38;11.90;;;5.10;;
80281;SDS011;69586;51.890;-8.458;2024-03-17T06:55:04;14.48;;;4.25;;
80281;SDS011;69586;51.890;-8.458;2024-03-17T06:57:31;10.95;;;4.47;;
80281;SDS011;69586;51.890;-8.458;2024-03-17T06:59:58;13.75;;;4.47;;
80281;SDS011;69586;51.890;-8.458;2024-03-17T07:02:25;11.80;;;5.13;;
80281;SDS011;69586;51.890;-8.458;2024-03-17T07:04:50;7.40;;;4.50;;
80281;SDS011;69586;51.890;-8.458;2024-03-17T07:07:16;8.95;;;3.97;;
80281;SDS011;69586;51.890;-8.458;2024-03-17T07:09:42;9.68;;;3.60;;
80281;SDS011;69586;51.890;-8.458;2024-03-17T07:12:08;5.35;;;3.08;;
80281;SDS011;69586;51.890;-8.458;2024-03-17T07:14:36;9.93;;;3.33;;
80281;SDS011;69586;51.890;-8.458;2024-03-17T07:17:03;7.03;;;3.78;;
80281;SDS011;69586;51.890;-8.458;2024-03-17T07:19:29;6.80;;;3.30;;
80281;SDS011;69586;51.890;-8.458;2024-03-17T07:21:56;12.15;;;3.13;;
80281;SDS011;69586;51.890;-8.458;2024-03-17T07:24:22;5.30;;;2.78;;
80281;SDS011;69586;51.890;-8.458;2024-03-17T07:26:48;8.60;;;4.03;;
80281;SDS011;69586;51.890;-8.458;2024-03-17T07:29:14;7.35;;;3.50;;
80281;SDS011;69586;51.890;-8.458;2024-03-17T07:31:41;5.25;;;3.00;;
80281;SDS011;69586;51.890;-8.458;2024-03-17T07:34:06;7.38;;;2.97;;
80281;SDS011;69586;51.890;-8.458;2024-03-17T07:36:32;3.67;;;2.40;;
80281;SDS011;69586;51.890;-8.458;2024-03-17T07:38:58;4.90;;;2.33;;
80281;SDS011;69586;51.890;-8.458;2024-03-17T07:41:23;4.30;;;2.70;;
80281;SDS011;69586;51.890;-8.458;2024-03-17T07:43:50;3.65;;;2.35;;
80281;SDS011;69586;51.890;-8.458;2024-03-17T07:46:16;2.53;;;2.33;;
80281;SDS011;69586;51.890;-8.458;2024-03-17T07:48:42;3.00;;;2.70;;
80281;SDS011;69586;51.890;-8.458;2024-03-17T07:51:10;3.35;;;2.75;;
80281;SDS011;69586;51.890;-8.458;2024-03-17T07:53:38;3.15;;;1.45;;
80281;SDS011;69586;51.890;-8.458;2024-03-17T07:56:08;2.40;;;1.85;;
80281;SDS011;69586;51.890;-8.458;2024-03-17T07:58:39;3.47;;;1.27;;
80281;SDS011;69586;51.890;-8.458;2024-03-17T08:01:06;0.90;;;0.90;;
80281;SDS011;69586;51.890;-8.458;2024-03-17T08:03:35;1.90;;;1.10;;
80281;SDS011;69586;51.890;-8.458;2024-03-17T08:06:03;1.17;;;0.80;;
80281;SDS011;69586;51.890;-8.458;2024-03-17T08:08:33;1.55;;;1.00;;
80281;SDS011;69586;51.890;-8.458;2024-03-17T08:11:00;3.95;;;1.10;;
80281;SDS011;69586;51.890;-8.458;2024-03-17T08:13:28;5.88;;;1.27;;
80281;SDS011;69586;51.890;-8.458;2024-03-17T08:15:59;4.22;;;1.23;;
80281;SDS011;69586;51.890;-8.458;2024-03-17T08:18:35;2.72;;;1.10;;
80281;SDS011;69586;51.890;-8.458;2024-03-17T08:21:01;1.48;;;0.88;;
80281;SDS011;69586;51.890;-8.458;2024-03-17T08:23:31;2.80;;;1.00;;
80281;SDS011;69586;51.890;-8.458;2024-03-17T08:25:59;6.07;;;1.10;;
80281;SDS011;69586;51.890;-8.458;2024-03-17T08:28:25;2.22;;;0.90;;
80281;SDS011;69586;51.890;-8.458;2024-03-17T08:30:56;2.47;;;0.93;;
80281;SDS011;69586;51.890;-8.458;2024-03-17T08:33:23;1.52;;;0.90;;
80281;SDS011;69586;51.890;-8.458;2024-03-17T08:38:27;2.55;;;0.95;;
80281;SDS011;69586;51.890;-8.458;2024-03-17T08:40:57;2.75;;;0.80;;
80281;SDS011;69586;51.890;-8.458;2024-03-17T08:43:28;2.80;;;0.80;;
80281;SDS011;69586;51.890;-8.458;2024-03-17T08:45:57;4.32;;;1.00;;
80281;SDS011;69586;51.890;-8.458;2024-03-17T08:48:32;3.70;;;1.08;;
80281;SDS011;69586;51.890;-8.458;2024-03-17T08:51:02;2.47;;;0.95;;
80281;SDS011;69586;51.890;-8.458;2024-03-17T08:53:29;2.00;;;0.80;;
80281;SDS011;69586;51.890;-8.458;2024-03-17T08:55:56;1.83;;;0.90;;
80281;SDS011;69586;51.890;-8.458;2024-03-17T08:58:22;2.42;;;0.73;;
80281;SDS011;69586;51.890;-8.458;2024-03-17T09:00:48;1.08;;;0.88;;
80281;SDS011;69586;51.890;-8.458;2024-03-17T09:03:14;3.08;;;1.20;;
80281;SDS011;69586;51.890;-8.458;2024-03-17T09:05:44;0.80;;;0.73;;
80281;SDS011;69586;51.890;-8.458;2024-03-17T09:08:21;1.25;;;0.80;;
80281;SDS011;69586;51.890;-8.458;2024-03-17T09:10:49;0.68;;;0.68;;
80281;SDS011;69586;51.890;-8.458;2024-03-17T09:13:16;1.38;;;1.00;;
80281;SDS011;69586;51.890;-8.458;2024-03-17T09:15:56;1.02;;;0.80;;
80281;SDS011;69586;51.890;-8.458;2024-03-17T09:18:26;1.02;;;0.82;;
80281;SDS011;69586;51.890;-8.458;2024-03-17T09:20:56;1.00;;;0.60;;
80281;SDS011;69586;51.890;-8.458;2024-03-17T09:23:27;2.70;;;0.90;;
80281;SDS011;69586;51.890;-8.458;2024-03-17T09:28:27;1.63;;;0.93;;
80281;SDS011;69586;51.890;-8.458;2024-03-17T09:30:54;1.10;;;0.95;;
80281;SDS011;69586;51.890;-8.458;2024-03-17T09:33:21;0.82;;;0.82;;
80281;SDS011;69586;51.890;-8.458;2024-03-17T09:35:54;1.73;;;0.93;;
80281;SDS011;69586;51.890;-8.458;2024-03-17T09:38:21;2.78;;;1.27;;
80281;SDS011;69586;51.890;-8.458;2024-03-17T09:40:48;2.80;;;1.30;;
80281;SDS011;69586;51.890;-8.458;2024-03-17T09:43:22;3.15;;;1.42;;
80281;SDS011;69586;51.890;-8.458;2024-03-17T09:45:50;3.17;;;1.42;;
80281;SDS011;69586;51.890;-8.458;2024-03-17T09:48:22;7.18;;;1.67;;
80281;SDS011;69586;51.890;-8.458;2024-03-17T09:53:17;3.38;;;1.27;;
80281;SDS011;69586;51.890;-8.458;2024-03-17T09:55:50;3.65;;;1.73;;
80281;SDS011;69586;51.890;-8.458;2024-03-17T09:58:18;3.35;;;1.77;;
80281;SDS011;69586;51.890;-8.458;2024-03-17T10:00:44;4.32;;;2.00;;
80281;SDS011;69586;51.890;-8.458;2024-03-17T10:03:11;4.72;;;1.77;;
80281;SDS011;69586;51.890;-8.458;2024-03-17T10:05:37;6.53;;;2.10;;
80281;SDS011;69586;51.890;-8.458;2024-03-17T10:08:03;6.22;;;2.08;;
80281;SDS011;69586;51.890;-8.458;2024-03-17T10:10:29;5.78;;;1.80;;
80281;SDS011;69586;51.890;-8.458;2024-03-17T10:12:55;6.40;;;2.05;;
80281;SDS011;69586;51.890;-8.458;2024-03-17T10:15:21;5.88;;;1.95;;
80281;SDS011;69586;51.890;-8.458;2024-03-17T10:17:48;9.32;;;2.20;;
80281;SDS011;69586;51.890;-8.458;2024-03-17T10:20:15;12.15;;;2.47;;
80281;SDS011;69586;51.890;-8.458;2024-03-17T10:25:39;7.80;;;2.40;;
80281;SDS011;69586;51.890;-8.458;2024-03-17T10:28:12;4.65;;;1.90;;
80281;SDS011;69586;51.890;-8.458;2024-03-17T10:33:05;9.60;;;2.28;;
80281;SDS011;69586;51.890;-8.458;2024-03-17T10:35:34;7.82;;;2.13;;
80281;SDS011;69586;51.890;-8.458;2024-03-17T10:38:04;16.40;;;2.75;;
80281;SDS011;69586;51.890;-8.458;2024-03-17T10:40:31;12.18;;;3.13;;
80281;SDS011;69586;51.890;-8.458;2024-03-17T10:43:04;8.73;;;2.50;;
80281;SDS011;69586;51.890;-8.458;2024-03-17T10:45:31;9.02;;;2.50;;
80281;SDS011;69586;51.890;-8.458;2024-03-17T10:48:07;10.60;;;2.72;;
80281;SDS011;69586;51.890;-8.458;2024-03-17T10:50:37;9.48;;;2.80;;
80281;SDS011;69586;51.890;-8.458;2024-03-17T10:53:04;7.50;;;2.40;;
80281;SDS011;69586;51.890;-8.458;2024-03-17T10:55:43;5.45;;;2.20;;
80281;SDS011;69586;51.890;-8.458;2024-03-17T10:58:53;10.68;;;2.80;;
80281;SDS011;69586;51.890;-8.458;2024-03-17T11:01:01;6.22;;;2.42;;
80281;SDS011;69586;51.890;-8.458;2024-03-17T11:03:28;12.93;;;2.58;;
80281;SDS011;69586;51.890;-8.458;2024-03-17T11:05:58;8.82;;;2.80;;
80281;SDS011;69586;51.890;-8.458;2024-03-17T11:08:28;7.57;;;2.40;;
80281;SDS011;69586;51.890;-8.458;2024-03-17T11:10:58;10.55;;;2.45;;
80281;SDS011;69586;51.890;-8.458;2024-03-17T11:13:27;8.35;;;2.50;;
80281;SDS011;69586;51.890;-8.458;2024-03-17T11:15:54;9.02;;;3.25;;
80281;SDS011;69586;51.890;-8.458;2024-03-17T11:20:58;7.25;;;2.38;;
80281;SDS011;69586;51.890;-8.458;2024-03-17T11:23:40;9.40;;;3.08;;
80281;SDS011;69586;51.890;-8.458;2024-03-17T11:26:07;11.02;;;2.30;;
80281;SDS011;69586;51.890;-8.458;2024-03-17T11:33:57;14.82;;;3.03;;
80281;SDS011;69586;51.890;-8.458;2024-03-17T11:41:43;7.88;;;2.28;;
80281;SDS011;69586;51.890;-8.458;2024-03-17T11:49:24;7.80;;;2.17;;
80281;SDS011;69586;51.890;-8.458;2024-03-17T11:52:03;4.25;;;2.20;;
80281;SDS011;69586;51.890;-8.458;2024-03-17T11:54:34;4.55;;;2.03;;
80281;SDS011;69586;51.890;-8.458;2024-03-17T11:57:05;12.25;;;2.45;;
80281;SDS011;69586;51.890;-8.458;2024-03-17T11:59:35;9.68;;;2.30;;
80281;SDS011;69586;51.890;-8.458;2024-03-17T12:02:16;8.38;;;2.13;;
80281;SDS011;69586;51.890;-8.458;2024-03-17T12:04:47;7.15;;;2.35;;
80281;SDS011;69586;51.890;-8.458;2024-03-17T12:07:17;8.95;;;2.33;;
80281;SDS011;69586;51.890;-8.458;2024-03-17T12:09:44;7.45;;;2.13;;
80281;SDS011;69586;51.890;-8.458;2024-03-17T12:12:20;7.25;;;2.45;;
80281;SDS011;69586;51.890;-8.458;2024-03-17T12:14:48;8.95;;;2.08;;
80281;SDS011;69586;51.890;-8.458;2024-03-17T12:17:19;8.05;;;2.35;;
80281;SDS011;69586;51.890;-8.458;2024-03-17T12:19:46;9.57;;;2.20;;
80281;SDS011;69586;51.890;-8.458;2024-03-17T12:22:17;7.47;;;2.10;;
80281;SDS011;69586;51.890;-8.458;2024-03-17T12:24:47;9.10;;;2.55;;
80281;SDS011;69586;51.890;-8.458;2024-03-17T12:27:25;6.28;;;2.33;;
80281;SDS011;69586;51.890;-8.458;2024-03-17T12:29:54;6.70;;;2.28;;
80281;SDS011;69586;51.890;-8.458;2024-03-17T12:32:21;8.20;;;2.40;;
80281;SDS011;69586;51.890;-8.458;2024-03-17T12:34:52;8.00;;;2.58;;
80281;SDS011;69586;51.890;-8.458;2024-03-17T12:39:45;6.68;;;1.92;;
80281;SDS011;69586;51.890;-8.458;2024-03-17T12:44:54;5.45;;;2.00;;
80281;SDS011;69586;51.890;-8.458;2024-03-17T12:47:22;7.07;;;2.30;;
80281;SDS011;69586;51.890;-8.458;2024-03-17T12:49:49;7.43;;;2.17;;
80281;SDS011;69586;51.890;-8.458;2024-03-17T12:55:02;5.68;;;1.90;;
80281;SDS011;69586;51.890;-8.458;2024-03-17T12:57:51;5.97;;;2.05;;
80281;SDS011;69586;51.890;-8.458;2024-03-17T13:00:37;3.47;;;2.10;;
80281;SDS011;69586;51.890;-8.458;2024-03-17T13:03:06;3.92;;;1.63;;
80281;SDS011;69586;51.890;-8.458;2024-03-17T13:05:35;4.85;;;1.85;;
80281;SDS011;69586;51.890;-8.458;2024-03-17T13:08:02;5.07;;;1.90;;
80281;SDS011;69586;51.890;-8.458;2024-03-17T13:10:29;10.52;;;2.20;;
80281;SDS011;69586;51.890;-8.458;2024-03-17T13:13:08;5.20;;;1.88;;
80281;SDS011;69586;51.890;-8.458;2024-03-17T13:15:34;6.45;;;2.30;;
80281;SDS011;69586;51.890;-8.458;2024-03-17T13:18:01;4.32;;;2.17;;
80281;SDS011;69586;51.890;-8.458;2024-03-17T13:20:29;6.05;;;1.90;;
80281;SDS011;69586;51.890;-8.458;2024-03-17T13:22:55;10.48;;;2.25;;
80281;SDS011;69586;51.890;-8.458;2024-03-17T13:25:22;8.88;;;2.50;;
80281;SDS011;69586;51.890;-8.458;2024-03-17T13:27:51;12.65;;;2.33;;
80281;SDS011;69586;51.890;-8.458;2024-03-17T13:30:18;6.25;;;2.03;;
80281;SDS011;69586;51.890;-8.458;2024-03-17T13:32:45;5.68;;;2.00;;
80281;SDS011;69586;51.890;-8.458;2024-03-17T13:35:17;5.15;;;2.22;;
80281;SDS011;69586;51.890;-8.458;2024-03-17T13:37:44;6.18;;;2.00;;
80281;SDS011;69586;51.890;-8.458;2024-03-17T13:40:11;7.97;;;2.30;;
80281;SDS011;69586;51.890;-8.458;2024-03-17T13:42:44;4.70;;;1.90;;
80281;SDS011;69586;51.890;-8.458;2024-03-17T13:45:10;4.93;;;2.00;;
80281;SDS011;69586;51.890;-8.458;2024-03-17T13:47:37;6.53;;;1.95;;
80281;SDS011;69586;51.890;-8.458;2024-03-17T13:50:07;8.00;;;2.30;;
80281;SDS011;69586;51.890;-8.458;2024-03-17T13:52:38;6.32;;;2.13;;
80281;SDS011;69586;51.890;-8.458;2024-03-17T13:55:16;9.48;;;2.28;;
80281;SDS011;69586;51.890;-8.458;2024-03-17T13:58:00;7.65;;;1.92;;
80281;SDS011;69586;51.890;-8.458;2024-03-17T14:00:27;7.65;;;2.00;;
80281;SDS011;69586;51.890;-8.458;2024-03-17T14:02:54;5.40;;;1.90;;
80281;SDS011;69586;51.890;-8.458;2024-03-17T14:05:24;9.23;;;2.42;;
80281;SDS011;69586;51.890;-8.458;2024-03-17T14:07:51;9.60;;;2.50;;
80281;SDS011;69586;51.890;-8.458;2024-03-17T14:10:19;11.43;;;2.40;;
80281;SDS011;69586;51.890;-8.458;2024-03-17T14:12:45;12.30;;;2.75;;
80281;SDS011;69586;51.890;-8.458;2024-03-17T14:15:11;9.40;;;2.55;;
80281;SDS011;69586;51.890;-8.458;2024-03-17T14:17:39;6.00;;;2.50;;
80281;SDS011;69586;51.890;-8.458;2024-03-17T14:20:10;16.43;;;2.60;;
80281;SDS011;69586;51.890;-8.458;2024-03-17T14:22:41;7.90;;;2.33;;
80281;SDS011;69586;51.890;-8.458;2024-03-17T14:25:17;4.25;;;1.92;;
80281;SDS011;69586;51.890;-8.458;2024-03-17T14:27:43;9.73;;;2.55;;
80281;SDS011;69586;51.890;-8.458;2024-03-17T14:30:10;6.88;;;2.28;;
80281;SDS011;69586;51.890;-8.458;2024-03-17T14:32:42;6.32;;;2.33;;
80281;SDS011;69586;51.890;-8.458;2024-03-17T14:35:10;5.20;;;2.33;;
80281;SDS011;69586;51.890;-8.458;2024-03-17T14:37:38;5.60;;;2.03;;
80281;SDS011;69586;51.890;-8.458;2024-03-17T14:40:06;7.55;;;2.33;;
80281;SDS011;69586;51.890;-8.458;2024-03-17T14:42:39;6.65;;;2.13;;
80281;SDS011;69586;51.890;-8.458;2024-03-17T14:45:06;8.82;;;2.10;;
80281;SDS011;69586;51.890;-8.458;2024-03-17T14:47:33;5.60;;;1.98;;
80281;SDS011;69586;51.890;-8.458;2024-03-17T14:49:59;9.82;;;2.40;;
80281;SDS011;69586;51.890;-8.458;2024-03-17T14:52:24;2.75;;;1.77;;
80281;SDS011;69586;51.890;-8.458;2024-03-17T14:54:51;4.68;;;2.00;;
80281;SDS011;69586;51.890;-8.458;2024-03-17T14:57:19;7.90;;;1.85;;
80281;SDS011;69586;51.890;-8.458;2024-03-17T14:59:46;4.70;;;1.63;;
80281;SDS011;69586;51.890;-8.458;2024-03-17T15:02:11;6.80;;;2.33;;
80281;SDS011;69586;51.890;-8.458;2024-03-17T15:04:37;6.05;;;2.13;;
80281;SDS011;69586;51.890;-8.458;2024-03-17T15:07:03;7.53;;;2.40;;